Omemee, Canada
Current Conditions -  °F | °C
As of 9:00 PM on Wednesday 26 Nov 2014 (Local Time) from CYPQ Reporting Station
Overcast Overcast  
Wind Chill: 17°   Ceiling: 3300
Heat Index: 27°   Visibility: 9mi
Dew Point: 19°   Wind: 10mph
Humidity: 74%   Direction: 40°NE
Pressure: 30.08"   Gusts: 17mph
Location:  44.3°N, 78.56°W
Report Text: CYPQ 270200Z AUTO 04009G15KT 9SM OVC033 M03/M07 A3008 RMK SLP196
Loading
Personal Weather Stations






























Interactive Weather Map New forecast layout! Learn more

10-Day Weather Forecast

Advertisements
Track Severe Weather on mobile